Tennessee — FM3908 — position and weather

sailwx.info

Track history (hours):
 
Tides and Currents Weather Stations Pressure Air Temp Water Temp Dewpoint Dewpoint Depression Visibility Wind Speed Wind Dir Waves Ship Positions

Tennessee

Last reported at 2017-Oct-17 07:47 UTC. Time now 2017-Oct-23 00:52 UTC.
Position N 43°43' E 004°37'.

Length 80 m; draft 0.3 m.

Type: Ship. MMSI: 227095770.

Date/timePositionNaut miles runAvg speedWind from/ knotsBaromVisibWave heightAir tempDewpointWater temp
2017-Oct-17 07:47N 43°43' E 004°37'2 4.3
2017-Oct-17 07:18N 43°41' E 004°36'7 4.0
2017-Oct-17 05:28N 43°39' E 004°26'1 1.3
2017-Oct-17 04:59N 43°38' E 004°25'34 2.2
2017-Oct-16 13:39N 43°24' E 003°43'0 0.0
2017-Oct-16 13:30N 43°24' E 003°43'0 0.0
2017-Oct-16 13:00N 43°24' E 003°43'0 0.0
2017-Oct-16 12:30N 43°24' E 003°43'0 0.0
2017-Oct-16 11:53N 43°24' E 003°43'3 0.1
2017-Oct-15 15:44N 43°26' E 003°46'0 0.0
2017-Oct-15 15:31N 43°26' E 003°46'0 0.0
2017-Oct-15 14:57N 43°26' E 003°46'0 0.0
2017-Oct-15 13:54N 43°26' E 003°46'0 0.0
2017-Oct-15 13:07N 43°26' E 003°46'0 0.0
2017-Oct-15 12:55N 43°26' E 003°46'0 0.0
2017-Oct-15 11:37N 43°26' E 003°46'0 0.0
2017-Oct-15 11:27N 43°26' E 003°46'0 0.0
2017-Oct-15 10:54N 43°26' E 003°46'0 0.0
2017-Oct-15 10:23N 43°26' E 003°46'0 0.0
2017-Oct-14 21:00N 43°26' E 003°46'0 0.0
2017-Oct-14 20:29N 43°26' E 003°46'0 0.0
2017-Oct-14 19:59N 43°26' E 003°46'0 0.0
2017-Oct-13 20:08N 43°26' E 003°46'0 0.0
2017-Oct-13 19:58N 43°26' E 003°46'0 0.0
2017-Oct-13 19:13N 43°26' E 003°46'0 0.0
2017-Oct-13 18:46N 43°26' E 003°46'0 0.0
2017-Oct-13 18:23N 43°26' E 003°46'0 0.0
2017-Oct-13 17:44N 43°26' E 003°46'0 0.0
2017-Oct-13 16:48N 43°26' E 003°46'0 0.0
2017-Oct-13 16:21N 43°26' E 003°46'0 0.0
2017-Oct-13 15:45N 43°26' E 003°46'0 0.0
2017-Oct-13 15:27N 43°26' E 003°46'0 0.0
2017-Oct-13 15:00N 43°26' E 003°46'0 0.0
2017-Oct-13 14:30N 43°26' E 003°46'0 0.0
2017-Oct-13 14:01N 43°26' E 003°46'0 0.0
2017-Oct-13 13:30N 43°26' E 003°46'0 0.0
2017-Oct-13 13:00N 43°26' E 003°46'0 0.0
2017-Oct-13 12:05N 43°26' E 003°46'0 0.0
2017-Oct-13 11:53N 43°26' E 003°46'0 0.0
2017-Oct-13 11:30N 43°26' E 003°46'0 0.0
2017-Oct-13 11:00N 43°26' E 003°46'0 0.0
2017-Oct-13 10:29N 43°26' E 003°46'0 0.0
2017-Oct-13 10:00N 43°26' E 003°46'0 0.0
2017-Oct-13 09:30N 43°26' E 003°46'0 0.0
2017-Oct-13 08:41N 43°26' E 003°46'0 0.0
2017-Oct-13 08:31N 43°26' E 003°46'0 0.0
2017-Oct-13 05:57N 43°26' E 003°46'0 0.0
2017-Oct-13 04:52N 43°26' E 003°46'0 0.0
2017-Oct-13 04:29N 43°26' E 003°46'0 0.0
2017-Oct-13 03:52N 43°26' E 003°46'0 0.0
2017-Oct-13 03:30N 43°26' E 003°46'0 0.0
2017-Oct-13 02:58N 43°26' E 003°46'0 0.0
2017-Oct-13 02:30N 43°26' E 003°46'0 0.0
2017-Oct-13 02:00N 43°26' E 003°46'0 0.0
2017-Oct-13 01:30N 43°26' E 003°46'0 0.0
2017-Oct-13 01:00N 43°26' E 003°46'0 0.0
2017-Oct-13 00:30N 43°26' E 003°46'0 0.0
2017-Oct-13 00:01N 43°26' E 003°46'0 0.0
2017-Oct-12 23:30N 43°26' E 003°46'0 0.0
2017-Oct-12 22:51N 43°26' E 003°46'0 0.0
2017-Oct-12 22:09N 43°26' E 003°46'0 0.0
2017-Oct-12 21:59N 43°26' E 003°46'0 0.0
2017-Oct-12 21:30N 43°26' E 003°46'0 0.0
2017-Oct-12 21:00N 43°26' E 003°46'0 0.0
2017-Oct-12 20:24N 43°26' E 003°46'0 0.0
2017-Oct-12 19:53N 43°26' E 003°46'0 0.0
2017-Oct-12 19:30N 43°26' E 003°46'0 0.0
2017-Oct-12 19:00N 43°26' E 003°46'0 0.0
2017-Oct-12 18:30N 43°26' E 003°46'0 0.0
2017-Oct-12 18:00N 43°26' E 003°46'0 0.0
2017-Oct-12 17:30N 43°26' E 003°46'0 0.0
2017-Oct-12 17:00N 43°26' E 003°46'0 0.0
2017-Oct-12 16:30N 43°26' E 003°46'0 0.0
2017-Oct-12 16:00N 43°26' E 003°46'0 0.0
2017-Oct-12 15:30N 43°26' E 003°46'0 0.0
2017-Oct-12 15:00N 43°26' E 003°46'0 0.0
2017-Oct-12 14:30N 43°26' E 003°46'0 0.0
2017-Oct-12 14:00N 43°26' E 003°46'0 0.0
2017-Oct-12 13:31N 43°26' E 003°46'0 0.0
2017-Oct-12 12:57N 43°26' E 003°46'0 0.0
2017-Oct-12 12:30N 43°26' E 003°46'0 0.0
2017-Oct-12 12:00N 43°26' E 003°46'0 0.0
2017-Oct-12 11:30N 43°26' E 003°46'31 0.9
2017-Oct-11 00:00N 43°39' E 004°26'0 0.0
2017-Oct-10 23:29N 43°39' E 004°26'0 0.0
2017-Oct-10 23:00N 43°39' E 004°26'0 0.0
2017-Oct-10 22:29N 43°39' E 004°26'0 0.0
2017-Oct-10 21:59N 43°39' E 004°26'0 0.0
2017-Oct-10 21:30N 43°39' E 004°26'0 0.0
2017-Oct-10 21:00N 43°39' E 004°26'0 0.0
2017-Oct-10 20:30N 43°39' E 004°26'0 0.0
2017-Oct-10 20:00N 43°39' E 004°26'0 0.0
2017-Oct-10 19:30N 43°39' E 004°26'0 0.0
2017-Oct-10 19:00N 43°39' E 004°26'0 0.0
2017-Oct-10 18:30N 43°39' E 004°26'0 0.0
2017-Oct-10 18:00N 43°39' E 004°26'0 0.0
2017-Oct-10 17:30N 43°39' E 004°26'0 0.0
2017-Oct-10 17:00N 43°39' E 004°26'0 0.0
2017-Oct-10 16:30N 43°39' E 004°26'0 0.0
2017-Oct-10 16:01N 43°39' E 004°26'0 0.0
2017-Oct-10 15:30N 43°39' E 004°26'0 0.0
2017-Oct-10 15:00N 43°39' E 004°26'0 0.0
2017-Oct-10 14:01N 43°39' E 004°26'0 0.0
2017-Oct-10 13:30N 43°39' E 004°26'0 0.0
2017-Oct-10 13:01N 43°39' E 004°26'0 0.0
2017-Oct-10 12:30N 43°39' E 004°26'0 0.0
2017-Oct-10 12:00N 43°39' E 004°26'0 0.0
2017-Oct-10 11:30N 43°39' E 004°26'0 0.0
2017-Oct-10 11:00N 43°39' E 004°26'0 0.0
2017-Oct-10 10:30N 43°39' E 004°26'0 0.0
2017-Oct-10 10:00N 43°39' E 004°26'0 0.0
2017-Oct-10 09:31N 43°39' E 004°26'0 0.0
2017-Oct-10 09:00N 43°39' E 004°26'0 0.0
2017-Oct-10 08:30N 43°39' E 004°26'0 0.0
2017-Oct-10 08:00N 43°39' E 004°26'0 0.0
2017-Oct-10 07:30N 43°39' E 004°26'0 0.0
2017-Oct-10 07:01N 43°39' E 004°26'0 0.0
2017-Oct-10 06:30N 43°39' E 004°26'0 0.0
2017-Oct-10 06:01N 43°39' E 004°26'0 0.0
2017-Oct-10 05:30N 43°39' E 004°26'0 0.0
2017-Oct-10 05:01N 43°39' E 004°26'0 0.0
2017-Oct-10 04:30N 43°39' E 004°26'0 0.0
2017-Oct-10 04:00N 43°39' E 004°26'0 0.0
2017-Oct-10 03:30N 43°39' E 004°26'0 0.0
2017-Oct-10 03:00N 43°39' E 004°26'0 0.0
2017-Oct-10 02:30N 43°39' E 004°26'0 0.0
2017-Oct-10 02:00N 43°39' E 004°26'0 0.0
2017-Oct-10 01:30N 43°39' E 004°26'0 0.0
2017-Oct-10 00:59N 43°39' E 004°26'0 0.0
2017-Oct-10 00:31N 43°39' E 004°26'0 0.0
2017-Oct-10 00:00N 43°39' E 004°26'0 0.0
2017-Oct-09 23:30N 43°39' E 004°26'0 0.0
2017-Oct-09 23:00N 43°39' E 004°26'0 0.0
2017-Oct-09 22:29N 43°39' E 004°26'0 0.0
2017-Oct-09 22:00N 43°39' E 004°26'0 0.0
2017-Oct-09 21:30N 43°39' E 004°26'0 0.0
2017-Oct-09 21:00N 43°39' E 004°26'0 0.0
2017-Oct-09 20:28N 43°39' E 004°26'0 0.0
2017-Oct-09 19:59N 43°39' E 004°26'0 0.0
2017-Oct-09 19:30N 43°39' E 004°26'0 0.0
2017-Oct-09 19:00N 43°39' E 004°26'0 0.0
2017-Oct-09 18:30N 43°39' E 004°26'0 0.0
2017-Oct-09 18:00N 43°39' E 004°26'0 0.0
2017-Oct-09 17:29N 43°39' E 004°26'0 0.0
2017-Oct-09 17:01N 43°39' E 004°26'0 0.0
2017-Oct-09 16:30N 43°39' E 004°26'0 0.0
2017-Oct-09 16:00N 43°39' E 004°26'0 0.0
2017-Oct-09 15:31N 43°39' E 004°26'0 0.0
2017-Oct-09 15:00N 43°39' E 004°26'0 0.0
2017-Oct-09 14:31N 43°39' E 004°26'0 0.0
2017-Oct-09 14:01N 43°39' E 004°26'0 0.0
2017-Oct-09 13:30N 43°39' E 004°26'0 0.0
2017-Oct-09 13:00N 43°39' E 004°26'0 0.0
2017-Oct-09 12:30N 43°39' E 004°26'0 0.0
2017-Oct-09 12:01N 43°39' E 004°26'0 0.0
2017-Oct-09 11:30N 43°39' E 004°26'0 0.0
2017-Oct-09 11:00N 43°39' E 004°26'0 0.0
2017-Oct-09 10:31N 43°39' E 004°26'0 0.0
2017-Oct-09 10:01N 43°39' E 004°26'0 0.0
2017-Oct-09 09:30N 43°39' E 004°26'0 0.0
2017-Oct-09 09:00N 43°39' E 004°26'0 0.0
2017-Oct-09 08:30N 43°39' E 004°26'0 0.0
2017-Oct-09 08:01N 43°39' E 004°26'0 0.0
2017-Oct-09 07:31N 43°39' E 004°26'0 0.0
2017-Oct-09 06:47N 43°39' E 004°26'0 0.0
2017-Oct-09 06:31N 43°39' E 004°26'0 0.0
2017-Oct-09 05:58N 43°39' E 004°26'0 0.0
2017-Oct-09 05:22N 43°39' E 004°26'0 0.0
2017-Oct-09 05:00N 43°39' E 004°26'0 0.0
2017-Oct-09 04:30N 43°39' E 004°26'0 0.0
2017-Oct-09 03:29N 43°39' E 004°26'0 0.0
2017-Oct-09 02:28N 43°39' E 004°26'0 0.0
2017-Oct-09 02:01N 43°39' E 004°26'0 0.0
2017-Oct-09 01:24N 43°39' E 004°26'0 0.0
2017-Oct-09 00:59N 43°39' E 004°26'0 0.0
2017-Oct-09 00:30N 43°39' E 004°26'0 0.0
2017-Oct-09 00:00N 43°39' E 004°26'0 0.0
2017-Oct-08 23:30N 43°39' E 004°26'0 0.0
2017-Oct-08 22:56N 43°39' E 004°26'0 0.0
2017-Oct-08 22:30N 43°39' E 004°26'0 0.0
2017-Oct-08 21:44N 43°39' E 004°26'0 0.0
2017-Oct-08 21:23N 43°39' E 004°26'0 0.0
2017-Oct-08 20:32N 43°39' E 004°26'0 0.0
2017-Oct-08 20:30N 43°39' E 004°26'0 0.0
2017-Oct-08 20:00N 43°39' E 004°26'0 0.0
2017-Oct-08 19:28N 43°39' E 004°26'0 0.0
2017-Oct-08 18:10N 43°39' E 004°26'0 0.0
2017-Oct-08 18:00N 43°39' E 004°26'0 0.0
2017-Oct-08 17:28N 43°39' E 004°26'0 0.0
2017-Oct-08 16:59N 43°39' E 004°26'0 0.0
2017-Oct-08 16:22N 43°39' E 004°26'0 0.0
2017-Oct-08 16:00N 43°39' E 004°26'0 0.0
2017-Oct-08 15:24N 43°39' E 004°26'0 0.0
2017-Oct-08 14:31N 43°39' E 004°26'0 0.0
2017-Oct-08 14:00N 43°39' E 004°26'0 0.0
2017-Oct-08 13:29N 43°39' E 004°26'0 0.0
2017-Oct-08 12:49N 43°39' E 004°26'0 0.0
2017-Oct-08 12:20N 43°39' E 004°26'0 0.0
2017-Oct-08 12:00N 43°39' E 004°26'0 0.0
2017-Oct-08 11:28N 43°39' E 004°26'0 0.0
2017-Oct-08 10:47N 43°39' E 004°26'0 0.0
2017-Oct-08 10:30N 43°39' E 004°26'0 0.0
2017-Oct-08 09:14N 43°39' E 004°26'0 0.0
2017-Oct-08 09:01N 43°39' E 004°26'0 0.0
2017-Oct-08 08:28N 43°39' E 004°26'0 0.0
2017-Oct-08 07:33N 43°39' E 004°26'0 0.2
2017-Oct-08 07:31N 43°39' E 004°26'0 0.0
2017-Oct-08 06:31N 43°39' E 004°26'0 0.0
2017-Oct-08 06:30N 43°39' E 004°26'0 0.0
2017-Oct-08 06:01N 43°39' E 004°26'0 0.0
2017-Oct-08 05:25N 43°39' E 004°26'0 0.0
2017-Oct-08 05:01N 43°39' E 004°26'0 0.0
2017-Oct-08 04:07N 43°39' E 004°26'0 0.0
2017-Oct-08 03:44N 43°39' E 004°26'0 0.0
2017-Oct-08 02:59N 43°39' E 004°26'0 0.0
2017-Oct-08 02:13N 43°39' E 004°26'0 0.0
2017-Oct-08 01:40N 43°39' E 004°26'0 0.0
2017-Oct-08 01:27N 43°39' E 004°26'0 0.0
2017-Oct-08 00:56N 43°39' E 004°26'0 0.0
2017-Oct-08 00:30N 43°39' E 004°26'0 0.0
2017-Oct-07 23:43N 43°39' E 004°26'0 0.0
2017-Oct-07 23:30N 43°39' E 004°26'0 0.0
2017-Oct-07 23:00N 43°39' E 004°26'0 0.0
2017-Oct-07 22:30N 43°39' E 004°26'0 0.0
2017-Oct-07 21:58N 43°39' E 004°26'0 0.0
2017-Oct-07 21:30N 43°39' E 004°26'0 0.0
2017-Oct-07 21:00N 43°39' E 004°26'0 0.0
2017-Oct-07 20:22N 43°39' E 004°26'0 0.0
2017-Oct-07 20:01N 43°39' E 004°26'0 0.0
2017-Oct-07 19:24N 43°39' E 004°26'0 0.0
2017-Oct-07 19:00N 43°39' E 004°26'0 0.0
2017-Oct-07 18:30N 43°39' E 004°26'0 0.0
2017-Oct-07 18:00N 43°39' E 004°26'0 0.0
2017-Oct-07 17:31N 43°39' E 004°26'0 0.0
2017-Oct-07 17:00N 43°39' E 004°26'0 0.0
2017-Oct-07 16:30N 43°39' E 004°26'0 0.0
2017-Oct-07 16:01N 43°39' E 004°26'0 0.0
2017-Oct-07 15:30N 43°39' E 004°26'0 0.0
2017-Oct-07 15:01N 43°39' E 004°26'0 0.0
2017-Oct-07 14:30N 43°39' E 004°26'0 0.0
2017-Oct-07 14:00N 43°39' E 004°26'0 0.0
2017-Oct-07 13:25N 43°39' E 004°26'0 0.0
2017-Oct-07 12:52N 43°39' E 004°26'0 0.0
2017-Oct-07 12:19N 43°39' E 004°26'0 0.0
2017-Oct-07 11:57N 43°39' E 004°26'0 0.0
2017-Oct-07 11:30N 43°39' E 004°26'0 0.0
2017-Oct-07 11:00N 43°39' E 004°26'0 0.0
2017-Oct-07 10:25N 43°39' E 004°26'0 0.0
2017-Oct-07 10:01N 43°39' E 004°26'0 0.0
2017-Oct-07 09:18N 43°39' E 004°26'0 0.0
2017-Oct-07 08:40N 43°39' E 004°26'0 0.0
2017-Oct-07 08:31N 43°39' E 004°26'0 0.0
2017-Oct-07 08:00N 43°39' E 004°26'  
Track history (hours):
 
Tides and Currents Weather Stations Pressure Air Temp Water Temp Dewpoint Dewpoint Depression Visibility Wind Speed Wind Dir Waves Ship Positions

Tennessee

Last reported at 2017-Oct-17 07:47 UTC. Time now 2017-Oct-23 00:52 UTC.
Position N 43°43' E 004°37'.

Length 80 m; draft 0.3 m.

Type: Ship. MMSI: 227095770.

Date/timePositionNaut miles runAvg speedWind from/ knotsBaromVisibWave heightAir tempDewpointWater temp
2017-Oct-17 07:47N 43°43' E 004°37'2 4.3
2017-Oct-17 07:18N 43°41' E 004°36'7 4.0
2017-Oct-17 05:28N 43°39' E 004°26'1 1.3
2017-Oct-17 04:59N 43°38' E 004°25'34 2.2
2017-Oct-16 13:39N 43°24' E 003°43'0 0.0
2017-Oct-16 13:30N 43°24' E 003°43'0 0.0
2017-Oct-16 13:00N 43°24' E 003°43'0 0.0
2017-Oct-16 12:30N 43°24' E 003°43'0 0.0
2017-Oct-16 11:53N 43°24' E 003°43'3 0.1
2017-Oct-15 15:44N 43°26' E 003°46'0 0.0
2017-Oct-15 15:31N 43°26' E 003°46'0 0.0
2017-Oct-15 14:57N 43°26' E 003°46'0 0.0
2017-Oct-15 13:54N 43°26' E 003°46'0 0.0
2017-Oct-15 13:07N 43°26' E 003°46'0 0.0
2017-Oct-15 12:55N 43°26' E 003°46'0 0.0
2017-Oct-15 11:37N 43°26' E 003°46'0 0.0
2017-Oct-15 11:27N 43°26' E 003°46'0 0.0
2017-Oct-15 10:54N 43°26' E 003°46'0 0.0
2017-Oct-15 10:23N 43°26' E 003°46'0 0.0
2017-Oct-14 21:00N 43°26' E 003°46'0 0.0
2017-Oct-14 20:29N 43°26' E 003°46'0 0.0
2017-Oct-14 19:59N 43°26' E 003°46'0 0.0
2017-Oct-13 20:08N 43°26' E 003°46'0 0.0
2017-Oct-13 19:58N 43°26' E 003°46'0 0.0
2017-Oct-13 19:13N 43°26' E 003°46'0 0.0
2017-Oct-13 18:46N 43°26' E 003°46'0 0.0
2017-Oct-13 18:23N 43°26' E 003°46'0 0.0
2017-Oct-13 17:44N 43°26' E 003°46'0 0.0
2017-Oct-13 16:48N 43°26' E 003°46'0 0.0
2017-Oct-13 16:21N 43°26' E 003°46'0 0.0
2017-Oct-13 15:45N 43°26' E 003°46'0 0.0
2017-Oct-13 15:27N 43°26' E 003°46'0 0.0
2017-Oct-13 15:00N 43°26' E 003°46'0 0.0
2017-Oct-13 14:30N 43°26' E 003°46'0 0.0
2017-Oct-13 14:01N 43°26' E 003°46'0 0.0
2017-Oct-13 13:30N 43°26' E 003°46'0 0.0
2017-Oct-13 13:00N 43°26' E 003°46'0 0.0
2017-Oct-13 12:05N 43°26' E 003°46'0 0.0
2017-Oct-13 11:53N 43°26' E 003°46'0 0.0
2017-Oct-13 11:30N 43°26' E 003°46'0 0.0
2017-Oct-13 11:00N 43°26' E 003°46'0 0.0
2017-Oct-13 10:29N 43°26' E 003°46'0 0.0
2017-Oct-13 10:00N 43°26' E 003°46'0 0.0
2017-Oct-13 09:30N 43°26' E 003°46'0 0.0
2017-Oct-13 08:41N 43°26' E 003°46'0 0.0
2017-Oct-13 08:31N 43°26' E 003°46'0 0.0
2017-Oct-13 05:57N 43°26' E 003°46'0 0.0
2017-Oct-13 04:52N 43°26' E 003°46'0 0.0
2017-Oct-13 04:29N 43°26' E 003°46'0 0.0
2017-Oct-13 03:52N 43°26' E 003°46'0 0.0
2017-Oct-13 03:30N 43°26' E 003°46'0 0.0
2017-Oct-13 02:58N 43°26' E 003°46'0 0.0
2017-Oct-13 02:30N 43°26' E 003°46'0 0.0
2017-Oct-13 02:00N 43°26' E 003°46'0 0.0
2017-Oct-13 01:30N 43°26' E 003°46'0 0.0
2017-Oct-13 01:00N 43°26' E 003°46'0 0.0
2017-Oct-13 00:30N 43°26' E 003°46'0 0.0
2017-Oct-13 00:01N 43°26' E 003°46'0 0.0
2017-Oct-12 23:30N 43°26' E 003°46'0 0.0
2017-Oct-12 22:51N 43°26' E 003°46'0 0.0
2017-Oct-12 22:09N 43°26' E 003°46'0 0.0
2017-Oct-12 21:59N 43°26' E 003°46'0 0.0
2017-Oct-12 21:30N 43°26' E 003°46'0 0.0
2017-Oct-12 21:00N 43°26' E 003°46'0 0.0
2017-Oct-12 20:24N 43°26' E 003°46'0 0.0
2017-Oct-12 19:53N 43°26' E 003°46'0 0.0
2017-Oct-12 19:30N 43°26' E 003°46'0 0.0
2017-Oct-12 19:00N 43°26' E 003°46'0 0.0
2017-Oct-12 18:30N 43°26' E 003°46'0 0.0
2017-Oct-12 18:00N 43°26' E 003°46'0 0.0
2017-Oct-12 17:30N 43°26' E 003°46'0 0.0
2017-Oct-12 17:00N 43°26' E 003°46'0 0.0
2017-Oct-12 16:30N 43°26' E 003°46'0 0.0
2017-Oct-12 16:00N 43°26' E 003°46'0 0.0
2017-Oct-12 15:30N 43°26' E 003°46'0 0.0
2017-Oct-12 15:00N 43°26' E 003°46'0 0.0
2017-Oct-12 14:30N 43°26' E 003°46'0 0.0
2017-Oct-12 14:00N 43°26' E 003°46'0 0.0
2017-Oct-12 13:31N 43°26' E 003°46'0 0.0
2017-Oct-12 12:57N 43°26' E 003°46'0 0.0
2017-Oct-12 12:30N 43°26' E 003°46'0 0.0
2017-Oct-12 12:00N 43°26' E 003°46'0 0.0
2017-Oct-12 11:30N 43°26' E 003°46'31 0.9
2017-Oct-11 00:00N 43°39' E 004°26'0 0.0
2017-Oct-10 23:29N 43°39' E 004°26'0 0.0
2017-Oct-10 23:00N 43°39' E 004°26'0 0.0
2017-Oct-10 22:29N 43°39' E 004°26'0 0.0
2017-Oct-10 21:59N 43°39' E 004°26'0 0.0
2017-Oct-10 21:30N 43°39' E 004°26'0 0.0
2017-Oct-10 21:00N 43°39' E 004°26'0 0.0
2017-Oct-10 20:30N 43°39' E 004°26'0 0.0
2017-Oct-10 20:00N 43°39' E 004°26'0 0.0
2017-Oct-10 19:30N 43°39' E 004°26'0 0.0
2017-Oct-10 19:00N 43°39' E 004°26'0 0.0
2017-Oct-10 18:30N 43°39' E 004°26'0 0.0
2017-Oct-10 18:00N 43°39' E 004°26'0 0.0
2017-Oct-10 17:30N 43°39' E 004°26'0 0.0
2017-Oct-10 17:00N 43°39' E 004°26'0 0.0
2017-Oct-10 16:30N 43°39' E 004°26'0 0.0
2017-Oct-10 16:01N 43°39' E 004°26'0 0.0
2017-Oct-10 15:30N 43°39' E 004°26'0 0.0
2017-Oct-10 15:00N 43°39' E 004°26'0 0.0
2017-Oct-10 14:01N 43°39' E 004°26'0 0.0
2017-Oct-10 13:30N 43°39' E 004°26'0 0.0
2017-Oct-10 13:01N 43°39' E 004°26'0 0.0
2017-Oct-10 12:30N 43°39' E 004°26'0 0.0
2017-Oct-10 12:00N 43°39' E 004°26'0 0.0
2017-Oct-10 11:30N 43°39' E 004°26'0 0.0
2017-Oct-10 11:00N 43°39' E 004°26'0 0.0
2017-Oct-10 10:30N 43°39' E 004°26'0 0.0
2017-Oct-10 10:00N 43°39' E 004°26'0 0.0
2017-Oct-10 09:31N 43°39' E 004°26'0 0.0
2017-Oct-10 09:00N 43°39' E 004°26'0 0.0
2017-Oct-10 08:30N 43°39' E 004°26'0 0.0
2017-Oct-10 08:00N 43°39' E 004°26'0 0.0
2017-Oct-10 07:30N 43°39' E 004°26'0 0.0
2017-Oct-10 07:01N 43°39' E 004°26'0 0.0
2017-Oct-10 06:30N 43°39' E 004°26'0 0.0
2017-Oct-10 06:01N 43°39' E 004°26'0 0.0
2017-Oct-10 05:30N 43°39' E 004°26'0 0.0
2017-Oct-10 05:01N 43°39' E 004°26'0 0.0
2017-Oct-10 04:30N 43°39' E 004°26'0 0.0
2017-Oct-10 04:00N 43°39' E 004°26'0 0.0
2017-Oct-10 03:30N 43°39' E 004°26'0 0.0
2017-Oct-10 03:00N 43°39' E 004°26'0 0.0
2017-Oct-10 02:30N 43°39' E 004°26'0 0.0
2017-Oct-10 02:00N 43°39' E 004°26'0 0.0
2017-Oct-10 01:30N 43°39' E 004°26'0 0.0
2017-Oct-10 00:59N 43°39' E 004°26'0 0.0
2017-Oct-10 00:31N 43°39' E 004°26'0 0.0
2017-Oct-10 00:00N 43°39' E 004°26'0 0.0
2017-Oct-09 23:30N 43°39' E 004°26'0 0.0
2017-Oct-09 23:00N 43°39' E 004°26'0 0.0
2017-Oct-09 22:29N 43°39' E 004°26'0 0.0
2017-Oct-09 22:00N 43°39' E 004°26'0 0.0
2017-Oct-09 21:30N 43°39' E 004°26'0 0.0
2017-Oct-09 21:00N 43°39' E 004°26'0 0.0
2017-Oct-09 20:28N 43°39' E 004°26'0 0.0
2017-Oct-09 19:59N 43°39' E 004°26'0 0.0
2017-Oct-09 19:30N 43°39' E 004°26'0 0.0
2017-Oct-09 19:00N 43°39' E 004°26'0 0.0
2017-Oct-09 18:30N 43°39' E 004°26'0 0.0
2017-Oct-09 18:00N 43°39' E 004°26'0 0.0
2017-Oct-09 17:29N 43°39' E 004°26'0 0.0
2017-Oct-09 17:01N 43°39' E 004°26'0 0.0
2017-Oct-09 16:30N 43°39' E 004°26'0 0.0
2017-Oct-09 16:00N 43°39' E 004°26'0 0.0
2017-Oct-09 15:31N 43°39' E 004°26'0 0.0
2017-Oct-09 15:00N 43°39' E 004°26'0 0.0
2017-Oct-09 14:31N 43°39' E 004°26'0 0.0
2017-Oct-09 14:01N 43°39' E 004°26'0 0.0
2017-Oct-09 13:30N 43°39' E 004°26'0 0.0
2017-Oct-09 13:00N 43°39' E 004°26'0 0.0
2017-Oct-09 12:30N 43°39' E 004°26'0 0.0
2017-Oct-09 12:01N 43°39' E 004°26'0 0.0
2017-Oct-09 11:30N 43°39' E 004°26'0 0.0
2017-Oct-09 11:00N 43°39' E 004°26'0 0.0
2017-Oct-09 10:31N 43°39' E 004°26'0 0.0
2017-Oct-09 10:01N 43°39' E 004°26'0 0.0
2017-Oct-09 09:30N 43°39' E 004°26'0 0.0
2017-Oct-09 09:00N 43°39' E 004°26'0 0.0
2017-Oct-09 08:30N 43°39' E 004°26'0 0.0
2017-Oct-09 08:01N 43°39' E 004°26'0 0.0
2017-Oct-09 07:31N 43°39' E 004°26'0 0.0
2017-Oct-09 06:47N 43°39' E 004°26'0 0.0
2017-Oct-09 06:31N 43°39' E 004°26'0 0.0
2017-Oct-09 05:58N 43°39' E 004°26'0 0.0
2017-Oct-09 05:22N 43°39' E 004°26'0 0.0
2017-Oct-09 05:00N 43°39' E 004°26'0 0.0
2017-Oct-09 04:30N 43°39' E 004°26'0 0.0
2017-Oct-09 03:29N 43°39' E 004°26'0 0.0
2017-Oct-09 02:28N 43°39' E 004°26'0 0.0
2017-Oct-09 02:01N 43°39' E 004°26'0 0.0
2017-Oct-09 01:24N 43°39' E 004°26'0 0.0
2017-Oct-09 00:59N 43°39' E 004°26'0 0.0
2017-Oct-09 00:30N 43°39' E 004°26'0 0.0
2017-Oct-09 00:00N 43°39' E 004°26'0 0.0
2017-Oct-08 23:30N 43°39' E 004°26'0 0.0
2017-Oct-08 22:56N 43°39' E 004°26'0 0.0
2017-Oct-08 22:30N 43°39' E 004°26'0 0.0
2017-Oct-08 21:44N 43°39' E 004°26'0 0.0
2017-Oct-08 21:23N 43°39' E 004°26'0 0.0
2017-Oct-08 20:32N 43°39' E 004°26'0 0.0
2017-Oct-08 20:30N 43°39' E 004°26'0 0.0
2017-Oct-08 20:00N 43°39' E 004°26'0 0.0
2017-Oct-08 19:28N 43°39' E 004°26'0 0.0
2017-Oct-08 18:10N 43°39' E 004°26'0 0.0
2017-Oct-08 18:00N 43°39' E 004°26'0 0.0
2017-Oct-08 17:28N 43°39' E 004°26'0 0.0
2017-Oct-08 16:59N 43°39' E 004°26'0 0.0
2017-Oct-08 16:22N 43°39' E 004°26'0 0.0
2017-Oct-08 16:00N 43°39' E 004°26'0 0.0
2017-Oct-08 15:24N 43°39' E 004°26'0 0.0
2017-Oct-08 14:31N 43°39' E 004°26'0 0.0
2017-Oct-08 14:00N 43°39' E 004°26'0 0.0
2017-Oct-08 13:29N 43°39' E 004°26'0 0.0
2017-Oct-08 12:49N 43°39' E 004°26'0 0.0
2017-Oct-08 12:20N 43°39' E 004°26'0 0.0
2017-Oct-08 12:00N 43°39' E 004°26'0 0.0
2017-Oct-08 11:28N 43°39' E 004°26'0 0.0
2017-Oct-08 10:47N 43°39' E 004°26'0 0.0
2017-Oct-08 10:30N 43°39' E 004°26'0 0.0
2017-Oct-08 09:14N 43°39' E 004°26'0 0.0
2017-Oct-08 09:01N 43°39' E 004°26'0 0.0
2017-Oct-08 08:28N 43°39' E 004°26'0 0.0
2017-Oct-08 07:33N 43°39' E 004°26'0 0.2
2017-Oct-08 07:31N 43°39' E 004°26'0 0.0
2017-Oct-08 06:31N 43°39' E 004°26'0 0.0
2017-Oct-08 06:30N 43°39' E 004°26'0 0.0
2017-Oct-08 06:01N 43°39' E 004°26'0 0.0
2017-Oct-08 05:25N 43°39' E 004°26'0 0.0
2017-Oct-08 05:01N 43°39' E 004°26'0 0.0
2017-Oct-08 04:07N 43°39' E 004°26'0 0.0
2017-Oct-08 03:44N 43°39' E 004°26'0 0.0
2017-Oct-08 02:59N 43°39' E 004°26'0 0.0
2017-Oct-08 02:13N 43°39' E 004°26'0 0.0
2017-Oct-08 01:40N 43°39' E 004°26'0 0.0
2017-Oct-08 01:27N 43°39' E 004°26'0 0.0
2017-Oct-08 00:56N 43°39' E 004°26'0 0.0
2017-Oct-08 00:30N 43°39' E 004°26'0 0.0
2017-Oct-07 23:43N 43°39' E 004°26'0 0.0
2017-Oct-07 23:30N 43°39' E 004°26'0 0.0
2017-Oct-07 23:00N 43°39' E 004°26'0 0.0
2017-Oct-07 22:30N 43°39' E 004°26'0 0.0
2017-Oct-07 21:58N 43°39' E 004°26'0 0.0
2017-Oct-07 21:30N 43°39' E 004°26'0 0.0
2017-Oct-07 21:00N 43°39' E 004°26'0 0.0
2017-Oct-07 20:22N 43°39' E 004°26'0 0.0
2017-Oct-07 20:01N 43°39' E 004°26'0 0.0
2017-Oct-07 19:24N 43°39' E 004°26'0 0.0
2017-Oct-07 19:00N 43°39' E 004°26'0 0.0
2017-Oct-07 18:30N 43°39' E 004°26'0 0.0
2017-Oct-07 18:00N 43°39' E 004°26'0 0.0
2017-Oct-07 17:31N 43°39' E 004°26'0 0.0
2017-Oct-07 17:00N 43°39' E 004°26'0 0.0
2017-Oct-07 16:30N 43°39' E 004°26'0 0.0
2017-Oct-07 16:01N 43°39' E 004°26'0 0.0
2017-Oct-07 15:30N 43°39' E 004°26'0 0.0
2017-Oct-07 15:01N 43°39' E 004°26'0 0.0
2017-Oct-07 14:30N 43°39' E 004°26'0 0.0
2017-Oct-07 14:00N 43°39' E 004°26'0 0.0
2017-Oct-07 13:25N 43°39' E 004°26'0 0.0
2017-Oct-07 12:52N 43°39' E 004°26'0 0.0
2017-Oct-07 12:19N 43°39' E 004°26'0 0.0
2017-Oct-07 11:57N 43°39' E 004°26'0 0.0
2017-Oct-07 11:30N 43°39' E 004°26'0 0.0
2017-Oct-07 11:00N 43°39' E 004°26'0 0.0
2017-Oct-07 10:25N 43°39' E 004°26'0 0.0
2017-Oct-07 10:01N 43°39' E 004°26'0 0.0
2017-Oct-07 09:18N 43°39' E 004°26'0 0.0
2017-Oct-07 08:40N 43°39' E 004°26'0 0.0
2017-Oct-07 08:31N 43°39' E 004°26'0 0.0
2017-Oct-07 08:00N 43°39' E 004°26'  

Dump ship's entire track history